createdAt,value
2023-05-16T00:02:14.218Z,124.44
2023-05-16T00:05:21.980Z,124.30
2023-05-16T00:08:37.683Z,114.61
2023-05-16T00:16:29.726Z,108.63
2023-05-16T00:19:36.464Z,129.06
2023-05-16T00:22:44.917Z,122.27
2023-05-16T00:25:54.573Z,124.83
2023-05-16T00:29:00.394Z,130.98
2023-05-16T00:32:15.905Z,127.21
2023-05-16T00:35:24.054Z,122.05
2023-05-16T00:38:31.021Z,130.27
2023-05-16T00:41:40.345Z,136.53
2023-05-16T00:44:46.991Z,141.94
2023-05-16T00:47:55.263Z,139.97
2023-05-16T00:51:02.313Z,147.08
2023-05-16T00:54:09.862Z,121.82
2023-05-16T00:57:19.517Z,107.92
2023-05-16T01:00:26.109Z,98.23
2023-05-16T01:03:33.575Z,96.75
2023-05-16T01:06:39.988Z,94.65
2023-05-16T01:09:46.812Z,98.95
2023-05-16T01:13:14.623Z,88.88
2023-05-16T01:16:34.562Z,99.77
2023-05-16T01:20:07.207Z,104.25
2023-05-16T01:23:37.062Z,110.14
2023-05-16T01:26:47.230Z,100.83
2023-05-16T01:30:23.938Z,103.14
2023-05-16T01:33:31.300Z,113.23
2023-05-16T01:36:51.749Z,117.02
2023-05-16T01:40:15.666Z,123.03
2023-05-16T01:43:42.117Z,129.69
2023-05-16T01:46:52.296Z,126.56
2023-05-16T01:50:11.534Z,127.66
2023-05-16T01:53:31.233Z,127.64
2023-05-16T01:56:40.961Z,122.50
2023-05-16T01:59:52.240Z,111.77
2023-05-16T02:02:58.111Z,106.61
2023-05-16T02:06:08.117Z,120.69
2023-05-16T02:09:14.170Z,107.29
2023-05-16T02:12:24.843Z,111.19
2023-05-16T02:15:35.160Z,104.34
2023-05-16T02:18:42.881Z,114.59
2023-05-16T02:21:50.642Z,108.25
2023-05-16T02:24:57.694Z,111.26
2023-05-16T02:28:07.208Z,108.49
2023-05-16T02:31:16.661Z,115.40
2023-05-16T02:34:22.531Z,119.45
2023-05-16T02:37:32.294Z,118.95
2023-05-16T02:40:38.222Z,126.74
2023-05-16T02:43:46.904Z,131.40
2023-05-16T02:46:55.829Z,129.96
2023-05-16T02:50:02.547Z,141.09
2023-05-16T02:53:08.473Z,149.44
2023-05-16T02:56:15.238Z,149.47
2023-05-16T02:59:27.083Z,134.72
2023-05-16T03:02:36.441Z,140.92
2023-05-16T03:05:42.623Z,132.19
2023-05-16T03:08:49.627Z,135.60
2023-05-16T03:11:56.772Z,137.40
2023-05-16T03:15:10.552Z,130.90
2023-05-16T03:18:39.414Z,127.69
2023-05-16T03:21:46.521Z,135.91
2023-05-16T03:24:57.664Z,136.54
2023-05-16T03:28:04.658Z,140.00
2023-05-16T03:31:11.308Z,138.66
2023-05-16T03:34:21.197Z,145.92
2023-05-16T03:37:28.359Z,142.28
2023-05-16T03:40:35.736Z,143.57
2023-05-16T03:43:41.669Z,136.44
2023-05-16T03:47:02.181Z,135.94
2023-05-16T03:50:13.217Z,139.93
2023-05-16T03:53:21.758Z,131.49
2023-05-16T03:56:29.420Z,121.60
2023-05-16T03:59:36.495Z,118.16
2023-05-16T04:02:44.449Z,105.52
2023-05-16T04:05:56.493Z,114.21
2023-05-16T04:09:02.513Z,115.41
2023-05-16T04:12:10.416Z,115.61
2023-05-16T04:15:16.430Z,109.83
2023-05-16T04:18:23.119Z,108.72
2023-05-16T04:21:32.177Z,112.03
2023-05-16T04:24:38.948Z,109.31
2023-05-16T04:27:44.852Z,102.35
2023-05-16T04:30:52.081Z,103.97
2023-05-16T04:33:58.330Z,103.86
2023-05-16T04:37:14.517Z,109.45
2023-05-16T04:40:20.652Z,104.82
2023-05-16T04:43:30.677Z,111.55
2023-05-16T04:46:39.582Z,112.47
2023-05-16T04:49:46.333Z,122.39
2023-05-16T04:52:56.383Z,134.21
2023-05-16T04:56:06.165Z,136.65
2023-05-16T04:59:17.371Z,151.07
2023-05-16T05:02:24.343Z,172.05
2023-05-16T05:05:30.509Z,172.56
2023-05-16T05:08:41.591Z,165.08
2023-05-16T05:11:52.266Z,158.73
2023-05-16T05:14:59.172Z,153.29
2023-05-16T05:18:08.127Z,149.28
2023-05-16T05:21:15.261Z,147.51
2023-05-16T05:24:26.501Z,146.11
2023-05-16T05:27:33.242Z,144.71
2023-05-16T05:30:40.633Z,154.66
2023-05-16T05:33:48.985Z,151.78
2023-05-16T05:36:54.904Z,139.17
2023-05-16T05:40:04.656Z,144.64
2023-05-16T05:43:10.508Z,130.80
2023-05-16T05:46:20.088Z,126.48
2023-05-16T05:49:26.321Z,131.30
2023-05-16T05:52:33.193Z,127.73
2023-05-16T05:55:42.503Z,113.62
2023-05-16T05:58:49.412Z,113.27
2023-05-16T06:01:55.752Z,109.44
2023-05-16T06:05:02.382Z,112.50
2023-05-16T06:08:08.577Z,108.58
2023-05-16T06:11:17.826Z,117.25
2023-05-16T06:14:26.267Z,119.86
2023-05-16T06:17:33.034Z,120.51
2023-05-16T06:20:45.664Z,118.17
2023-05-16T06:24:12.758Z,112.53
2023-05-16T06:27:21.309Z,114.57
2023-05-16T06:30:28.324Z,114.34
2023-05-16T06:33:34.361Z,119.62
2023-05-16T06:36:41.129Z,125.71
2023-05-16T06:39:48.265Z,106.45
2023-05-16T06:42:58.900Z,79.46
2023-05-16T06:46:04.853Z,85.39
2023-05-16T06:49:12.996Z,83.76
2023-05-16T06:52:18.883Z,85.07
2023-05-16T06:55:26.013Z,83.41
2023-05-16T06:58:40.210Z,82.62
2023-05-16T07:01:47.148Z,79.90
2023-05-16T07:04:53.378Z,78.79
2023-05-16T07:08:01.025Z,74.85
2023-05-16T07:11:07.144Z,81.63
2023-05-16T07:14:16.597Z,79.41
2023-05-16T07:17:22.573Z,78.85
2023-05-16T07:20:29.438Z,79.37
2023-05-16T07:23:35.490Z,78.18
2023-05-16T07:26:42.253Z,78.81
2023-05-16T07:29:50.741Z,79.10
2023-05-16T07:32:58.418Z,76.92
2023-05-16T07:36:16.973Z,78.67
2023-05-16T07:39:27.337Z,76.03
2023-05-16T07:42:34.328Z,74.43
2023-05-16T07:45:46.739Z,80.95
2023-05-16T07:48:53.242Z,78.58
2023-05-16T07:52:00.126Z,82.39
2023-05-16T07:55:06.561Z,86.09
2023-05-16T07:58:13.701Z,80.92
2023-05-16T08:01:22.393Z,84.29
2023-05-16T08:04:29.275Z,88.63
2023-05-16T08:07:36.012Z,83.93
2023-05-16T08:10:42.783Z,92.20
2023-05-16T08:13:48.871Z,92.82
2023-05-16T08:16:58.275Z,91.94
2023-05-16T08:20:04.519Z,87.47
2023-05-16T08:23:11.791Z,85.03
2023-05-16T08:26:18.077Z,84.09
2023-05-16T08:29:24.974Z,82.64
2023-05-16T08:32:33.484Z,83.01
2023-05-16T08:35:40.375Z,82.76
2023-05-16T08:38:46.318Z,77.44
2023-05-16T08:41:53.618Z,85.05
2023-05-16T08:44:59.693Z,90.19
2023-05-16T08:48:14.437Z,88.21
2023-05-16T08:51:24.157Z,87.13
2023-05-16T08:54:33.477Z,82.11
2023-05-16T08:57:43.084Z,78.85
2023-05-16T09:00:51.053Z,81.27
2023-05-16T09:04:00.580Z,80.64
2023-05-16T09:07:07.804Z,80.20
2023-05-16T09:10:16.053Z,76.08
2023-05-16T09:13:22.809Z,79.26
2023-05-16T09:16:28.741Z,76.71
2023-05-16T09:19:49.226Z,78.93
2023-05-16T09:22:57.856Z,78.64
2023-05-16T09:26:05.006Z,77.56
2023-05-16T09:29:20.541Z,76.03
2023-05-16T09:32:28.359Z,75.14
2023-05-16T09:35:43.896Z,75.12
2023-05-16T09:38:55.613Z,76.28
2023-05-16T09:42:07.282Z,75.30
2023-05-16T09:45:17.466Z,80.61
2023-05-16T09:48:28.896Z,76.33
2023-05-16T09:51:39.581Z,76.57
2023-05-16T09:54:45.648Z,76.13
2023-05-16T09:57:53.013Z,81.79
2023-05-16T10:01:01.078Z,79.39
2023-05-16T10:04:14.473Z,84.87
2023-05-16T10:07:25.904Z,83.54
2023-05-16T10:10:36.591Z,81.03
2023-05-16T10:13:45.811Z,82.39
2023-05-16T10:16:55.230Z,83.28
2023-05-16T10:20:08.379Z,82.81
2023-05-16T10:23:22.873Z,80.11
2023-05-16T10:26:32.740Z,79.53
2023-05-16T10:29:54.064Z,78.41
2023-05-16T10:33:15.481Z,79.37
2023-05-16T10:36:23.963Z,77.84
2023-05-16T10:39:36.258Z,77.31
2023-05-16T10:42:46.913Z,78.14
2023-05-16T10:45:59.484Z,76.27
2023-05-16T10:49:24.101Z,76.65
2023-05-16T10:52:37.541Z,73.18
2023-05-16T10:56:03.709Z,70.21
2023-05-16T10:59:28.850Z,71.68
2023-05-16T11:02:45.080Z,71.15
2023-05-16T11:05:55.880Z,73.73
2023-05-16T11:09:10.614Z,77.27
2023-05-16T11:12:19.409Z,75.02
2023-05-16T11:15:30.704Z,77.48
2023-05-16T11:18:37.073Z,81.75
2023-05-16T11:22:12.047Z,79.03
2023-05-16T11:25:17.943Z,79.63
2023-05-16T11:28:30.460Z,79.20
2023-05-16T11:31:38.875Z,72.43
2023-05-16T11:34:46.933Z,72.37
2023-05-16T11:37:53.079Z,71.95
2023-05-16T11:41:07.606Z,65.45
2023-05-16T11:44:18.157Z,71.32
2023-05-16T11:47:25.081Z,70.60
2023-05-16T11:50:31.343Z,77.72
2023-05-16T11:53:38.945Z,73.11
2023-05-16T11:56:45.165Z,77.81
2023-05-16T11:59:56.568Z,74.33
2023-05-16T12:03:08.446Z,76.98
2023-05-16T12:06:15.265Z,78.65
2023-05-16T12:09:21.252Z,73.98
2023-05-16T12:12:28.006Z,81.63
2023-05-16T12:15:37.507Z,80.65
2023-05-16T12:18:44.992Z,81.23
2023-05-16T12:21:53.397Z,78.23
2023-05-16T12:25:31.092Z,70.76
2023-05-16T12:28:39.756Z,69.42
2023-05-16T12:31:49.373Z,70.49
2023-05-16T12:34:57.308Z,69.65
2023-05-16T12:38:08.028Z,74.97
2023-05-16T12:41:13.925Z,76.72
2023-05-16T12:44:24.995Z,72.71
2023-05-16T12:47:49.338Z,81.68
2023-05-16T12:50:56.691Z,86.61
2023-05-16T12:54:13.759Z,87.48
2023-05-16T12:57:20.554Z,91.56
2023-05-16T13:00:27.318Z,94.64
2023-05-16T13:03:44.890Z,101.22
2023-05-16T13:10:06.638Z,109.04
2023-05-16T13:13:17.047Z,101.60
2023-05-16T13:16:29.385Z,102.04
2023-05-16T13:19:38.255Z,104.14
2023-05-16T13:22:48.066Z,97.63
2023-05-16T13:25:55.737Z,95.28
2023-05-16T13:29:03.129Z,91.91
2023-05-16T13:32:11.017Z,91.01
2023-05-16T13:35:22.061Z,87.01
2023-05-16T13:38:47.183Z,92.03
2023-05-16T13:41:57.467Z,87.49
2023-05-16T13:45:16.577Z,86.29
2023-05-16T13:48:23.426Z,85.09
2023-05-16T13:51:32.055Z,90.53
2023-05-16T13:54:40.008Z,83.88
2023-05-16T13:57:46.052Z,80.38
2023-05-16T14:00:53.387Z,82.65
2023-05-16T14:03:59.895Z,86.05
2023-05-16T14:07:16.420Z,91.63
2023-05-16T14:10:25.349Z,90.36
2023-05-16T14:13:32.276Z,93.28
2023-05-16T14:16:38.406Z,98.38
2023-05-16T14:19:45.261Z,98.32
2023-05-16T14:22:58.271Z,97.45
2023-05-16T14:26:08.143Z,102.06
2023-05-16T14:29:13.966Z,106.32
2023-05-16T14:32:21.318Z,113.74
2023-05-16T14:35:28.108Z,116.12
2023-05-16T14:38:37.676Z,128.61
2023-05-16T14:41:43.720Z,145.46
2023-05-16T14:44:50.797Z,147.24
2023-05-16T14:47:56.846Z,157.44
2023-05-16T14:51:07.813Z,173.04
2023-05-16T14:54:16.738Z,178.25
2023-05-16T14:57:23.557Z,165.60
2023-05-16T15:00:52.115Z,158.01
2023-05-16T15:04:14.989Z,149.82
2023-05-16T15:07:36.337Z,160.96
2023-05-16T15:10:59.818Z,163.79
2023-05-16T15:14:20.719Z,157.44
2023-05-16T15:17:33.208Z,143.41
2023-05-16T15:20:43.120Z,149.46
2023-05-16T15:23:52.349Z,144.86
2023-05-16T15:27:08.016Z,139.32
2023-05-16T15:30:29.155Z,146.63
2023-05-16T15:33:35.257Z,153.34
2023-05-16T15:36:42.177Z,157.04
2023-05-16T15:39:48.098Z,133.67
2023-05-16T15:42:57.635Z,166.13
2023-05-16T15:46:03.632Z,175.24
2023-05-16T15:49:12.571Z,162.48
2023-05-16T15:52:20.039Z,160.63
2023-05-16T15:55:29.014Z,163.43
2023-05-16T15:58:37.939Z,161.25
2023-05-16T16:01:45.068Z,159.32
2023-05-16T16:04:52.088Z,161.72
2023-05-16T16:07:58.890Z,174.80
2023-05-16T16:11:05.289Z,188.71
2023-05-16T16:14:14.768Z,204.17
2023-05-16T16:17:20.650Z,190.36
2023-05-16T16:20:27.786Z,188.71
2023-05-16T16:23:35.045Z,182.27
2023-05-16T16:26:41.817Z,185.22
2023-05-16T16:30:05.287Z,175.45
2023-05-16T16:33:31.515Z,178.29
2023-05-16T16:36:54.358Z,187.08
2023-05-16T16:40:16.170Z,184.62
2023-05-16T16:43:37.641Z,174.16
2023-05-16T16:47:01.354Z,187.08
2023-05-16T16:50:23.992Z,182.78
2023-05-16T16:53:51.640Z,182.74
2023-05-16T16:57:12.905Z,182.73
2023-05-16T17:00:34.057Z,189.95
2023-05-16T17:03:57.727Z,195.43
2023-05-16T17:07:25.172Z,193.51
2023-05-16T17:10:48.423Z,200.59
2023-05-16T17:13:59.591Z,219.35
2023-05-16T17:17:05.577Z,225.22
2023-05-16T17:20:17.086Z,220.96
2023-05-16T17:23:23.510Z,207.74
2023-05-16T17:26:30.425Z,198.88
2023-05-16T17:29:39.823Z,202.45
2023-05-16T17:32:49.528Z,194.61
2023-05-16T17:35:58.406Z,200.63
2023-05-16T17:39:12.963Z,186.11
2023-05-16T17:42:19.610Z,181.15
2023-05-16T17:45:36.334Z,187.56
2023-05-16T17:48:45.379Z,209.59
2023-05-16T17:52:05.065Z,224.67
2023-05-16T17:55:25.725Z,243.52
2023-05-16T17:58:46.723Z,256.04
2023-05-16T18:02:10.101Z,240.95
2023-05-16T18:05:31.781Z,266.08
2023-05-16T18:09:00.807Z,275.15
2023-05-16T18:12:21.843Z,288.65
2023-05-16T18:15:45.599Z,228.78
2023-05-16T18:19:01.866Z,236.75
2023-05-16T18:22:10.454Z,416.50
2023-05-16T18:25:20.086Z,337.73
2023-05-16T18:28:26.526Z,245.37
2023-05-16T18:34:38.896Z,229.02
2023-05-16T18:37:46.121Z,238.16
2023-05-16T18:40:52.342Z,227.73
2023-05-16T18:43:59.297Z,226.52
2023-05-16T18:47:33.872Z,225.34
2023-05-16T18:50:41.173Z,224.14
2023-05-16T18:53:47.290Z,220.10
2023-05-16T18:57:10.451Z,226.08
2023-05-16T19:00:31.317Z,228.19
2023-05-16T19:04:45.162Z,240.60
2023-05-16T19:08:06.706Z,255.03
2023-05-16T19:11:27.992Z,229.29
2023-05-16T19:14:48.881Z,228.09
2023-05-16T19:17:57.754Z,229.43
2023-05-16T19:21:13.682Z,236.13
2023-05-16T19:24:21.049Z,235.53
2023-05-16T19:27:29.191Z,224.22
2023-05-16T19:30:38.112Z,230.82
2023-05-16T19:33:47.650Z,240.27
2023-05-16T19:36:59.237Z,249.19
2023-05-16T19:40:05.532Z,246.17
2023-05-16T19:43:13.146Z,241.20
2023-05-16T19:46:19.058Z,232.21
2023-05-16T19:49:29.226Z,235.59
2023-05-16T19:52:39.118Z,218.13
2023-05-16T19:56:04.365Z,199.50
2023-05-16T19:59:16.029Z,200.34
2023-05-16T20:02:28.738Z,181.12
2023-05-16T20:05:34.776Z,174.68
2023-05-16T20:08:46.679Z,179.57
2023-05-16T20:11:54.774Z,179.90
2023-05-16T20:15:01.834Z,178.07
2023-05-16T20:18:07.989Z,168.10
2023-05-16T20:21:16.606Z,161.99
2023-05-16T20:24:50.281Z,162.82
2023-05-16T20:28:11.815Z,161.96
2023-05-16T20:31:33.507Z,161.24
2023-05-16T20:34:55.224Z,166.15
2023-05-16T20:38:17.075Z,167.72
2023-05-16T20:41:40.434Z,167.94
2023-05-16T20:45:08.405Z,174.02
2023-05-16T20:48:31.530Z,166.19
2023-05-16T20:51:56.856Z,163.30
2023-05-16T20:55:19.464Z,128.61
2023-05-16T20:58:44.152Z,114.64
2023-05-16T21:02:06.094Z,120.63
2023-05-16T21:05:27.353Z,124.22
2023-05-16T21:08:34.586Z,126.93
2023-05-16T21:11:40.773Z,141.31
2023-05-16T21:14:50.507Z,161.09
2023-05-16T21:17:56.594Z,176.73
2023-05-16T21:21:03.387Z,181.70
2023-05-16T21:24:10.997Z,173.17
2023-05-16T21:27:26.986Z,145.28
2023-05-16T21:30:35.582Z,123.27
2023-05-16T21:33:52.484Z,104.09
2023-05-16T21:36:59.011Z,99.75
2023-05-16T21:40:25.224Z,98.39
2023-05-16T21:43:46.117Z,83.32
2023-05-16T21:47:09.844Z,79.71
2023-05-16T21:50:38.312Z,77.89
2023-05-16T21:53:59.359Z,72.57
2023-05-16T21:57:20.202Z,73.84
2023-05-16T22:00:28.234Z,76.46
2023-05-16T22:03:36.981Z,74.90
2023-05-16T22:06:43.933Z,74.53
2023-05-16T22:09:53.871Z,74.08
2023-05-16T22:13:00.604Z,73.25
2023-05-16T22:16:06.642Z,73.26
2023-05-16T22:19:30.560Z,71.28
2023-05-16T22:22:52.488Z,74.18
2023-05-16T22:26:16.107Z,70.94
2023-05-16T22:29:38.511Z,69.62
2023-05-16T22:32:59.477Z,76.01
2023-05-16T22:36:23.130Z,76.47
2023-05-16T22:39:44.103Z,76.96
2023-05-16T22:42:50.813Z,88.35
2023-05-16T22:45:56.853Z,89.28
2023-05-16T22:49:03.821Z,96.17
2023-05-16T22:52:12.528Z,99.41
2023-05-16T22:55:19.475Z,108.75
2023-05-16T22:58:25.608Z,108.53
2023-05-16T23:01:32.781Z,104.62
2023-05-16T23:04:53.794Z,101.53
2023-05-16T23:08:17.412Z,98.19
2023-05-16T23:11:38.307Z,90.86
2023-05-16T23:15:02.513Z,85.91
2023-05-16T23:18:23.592Z,83.20
2023-05-16T23:21:45.033Z,79.41
2023-05-16T23:25:09.922Z,78.78
2023-05-16T23:28:30.870Z,78.84
2023-05-16T23:31:51.769Z,77.06
2023-05-16T23:35:13.119Z,78.29
2023-05-16T23:38:34.054Z,76.57
2023-05-16T23:41:43.517Z,75.09
2023-05-16T23:44:49.331Z,76.04
2023-05-16T23:47:56.208Z,72.66
2023-05-16T23:51:02.357Z,73.83
2023-05-16T23:54:09.202Z,74.58
2023-05-16T23:57:17.832Z,76.34
